Terminal Aerodrome Forecast
Issued by NWS Sioux Falls, SD

Home | Current Version | Previous Version | Text Only | Print | Product List | Glossary On
Versions: 1 2 3 4 5 6 7 8 9 10 11 12 13 14 15
000
FTUS43 KFSD 041214 AAB
TAFHON
TAF AMD
KHON 041214Z 0412/0512 16012KT P6SM SCT070 BKN120
      TEMPO 0412/0414 6SM TSRA BKN060CB
     FM042000 16014G20KT P6SM SCT100
     FM050300 15012KT P6SM SCT120=

USA.gov is the U.S. government's official web portal to all federal, state and local government web resources and services.